sensor_id;sensor_type;location;lat;lon;timestamp;P1;durP1;ratioP1;P2;durP2;ratioP2
29422;SDS011;16399;51.686;8.684;2023-04-15T00:00:03;11.05;;;5.90;;
29422;SDS011;16399;51.686;8.684;2023-04-15T00:03:06;10.63;;;5.90;;
29422;SDS011;16399;51.686;8.684;2023-04-15T00:06:08;10.32;;;5.25;;
29422;SDS011;16399;51.686;8.684;2023-04-15T00:09:10;11.65;;;5.87;;
29422;SDS011;16399;51.686;8.684;2023-04-15T00:12:13;9.78;;;5.85;;
29422;SDS011;16399;51.686;8.684;2023-04-15T00:15:15;12.15;;;5.50;;
29422;SDS011;16399;51.686;8.684;2023-04-15T00:18:18;12.25;;;6.35;;
29422;SDS011;16399;51.686;8.684;2023-04-15T00:21:20;15.30;;;6.53;;
29422;SDS011;16399;51.686;8.684;2023-04-15T00:24:22;10.60;;;6.42;;
29422;SDS011;16399;51.686;8.684;2023-04-15T00:27:25;11.63;;;5.10;;
29422;SDS011;16399;51.686;8.684;2023-04-15T00:30:27;11.22;;;5.47;;
29422;SDS011;16399;51.686;8.684;2023-04-15T00:33:29;10.98;;;5.50;;
29422;SDS011;16399;51.686;8.684;2023-04-15T00:36:32;11.75;;;5.65;;
29422;SDS011;16399;51.686;8.684;2023-04-15T00:39:35;11.15;;;5.33;;
29422;SDS011;16399;51.686;8.684;2023-04-15T00:42:37;12.75;;;6.05;;
29422;SDS011;16399;51.686;8.684;2023-04-15T00:45:40;9.90;;;5.40;;
29422;SDS011;16399;51.686;8.684;2023-04-15T00:48:42;11.55;;;6.25;;
29422;SDS011;16399;51.686;8.684;2023-04-15T00:51:45;9.98;;;6.00;;
29422;SDS011;16399;51.686;8.684;2023-04-15T00:54:47;11.08;;;5.90;;
29422;SDS011;16399;51.686;8.684;2023-04-15T00:57:51;11.05;;;6.17;;
29422;SDS011;16399;51.686;8.684;2023-04-15T01:00:54;9.65;;;6.05;;
29422;SDS011;16399;51.686;8.684;2023-04-15T01:03:57;9.67;;;5.53;;
29422;SDS011;16399;51.686;8.684;2023-04-15T01:06:59;9.50;;;5.60;;
29422;SDS011;16399;51.686;8.684;2023-04-15T01:10:02;10.88;;;5.70;;
29422;SDS011;16399;51.686;8.684;2023-04-15T01:13:05;12.28;;;5.97;;
29422;SDS011;16399;51.686;8.684;2023-04-15T01:16:07;11.10;;;5.42;;
29422;SDS011;16399;51.686;8.684;2023-04-15T01:19:10;10.55;;;5.62;;
29422;SDS011;16399;51.686;8.684;2023-04-15T01:22:13;10.05;;;5.97;;
29422;SDS011;16399;51.686;8.684;2023-04-15T01:25:19;10.93;;;5.83;;
29422;SDS011;16399;51.686;8.684;2023-04-15T01:28:30;9.18;;;5.00;;
29422;SDS011;16399;51.686;8.684;2023-04-15T01:31:33;11.12;;;5.45;;
29422;SDS011;16399;51.686;8.684;2023-04-15T01:34:35;9.60;;;5.45;;
29422;SDS011;16399;51.686;8.684;2023-04-15T01:37:38;9.48;;;5.50;;
29422;SDS011;16399;51.686;8.684;2023-04-15T01:40:40;11.20;;;5.35;;
29422;SDS011;16399;51.686;8.684;2023-04-15T01:43:43;10.15;;;6.17;;
29422;SDS011;16399;51.686;8.684;2023-04-15T01:46:45;10.03;;;5.15;;
29422;SDS011;16399;51.686;8.684;2023-04-15T01:49:48;9.70;;;5.62;;
29422;SDS011;16399;51.686;8.684;2023-04-15T01:52:50;9.08;;;4.80;;
29422;SDS011;16399;51.686;8.684;2023-04-15T01:55:52;10.40;;;5.50;;
29422;SDS011;16399;51.686;8.684;2023-04-15T01:58:55;9.73;;;5.85;;
29422;SDS011;16399;51.686;8.684;2023-04-15T02:01:57;9.15;;;5.35;;
29422;SDS011;16399;51.686;8.684;2023-04-15T02:04:59;9.90;;;5.97;;
29422;SDS011;16399;51.686;8.684;2023-04-15T02:08:03;8.70;;;5.20;;
29422;SDS011;16399;51.686;8.684;2023-04-15T02:11:06;11.68;;;6.20;;
29422;SDS011;16399;51.686;8.684;2023-04-15T02:14:08;8.60;;;5.50;;
29422;SDS011;16399;51.686;8.684;2023-04-15T02:17:11;9.23;;;5.47;;
29422;SDS011;16399;51.686;8.684;2023-04-15T02:20:13;10.45;;;5.58;;
29422;SDS011;16399;51.686;8.684;2023-04-15T02:23:16;8.88;;;5.30;;
29422;SDS011;16399;51.686;8.684;2023-04-15T02:26:18;10.93;;;6.12;;
29422;SDS011;16399;51.686;8.684;2023-04-15T02:29:21;10.78;;;6.40;;
29422;SDS011;16399;51.686;8.684;2023-04-15T02:32:24;10.53;;;5.85;;
29422;SDS011;16399;51.686;8.684;2023-04-15T02:35:26;10.50;;;5.95;;
29422;SDS011;16399;51.686;8.684;2023-04-15T02:38:28;11.28;;;5.62;;
29422;SDS011;16399;51.686;8.684;2023-04-15T02:41:31;9.78;;;5.28;;
29422;SDS011;16399;51.686;8.684;2023-04-15T02:44:33;8.55;;;5.08;;
29422;SDS011;16399;51.686;8.684;2023-04-15T02:47:36;12.37;;;6.12;;
29422;SDS011;16399;51.686;8.684;2023-04-15T02:50:40;13.18;;;6.25;;
29422;SDS011;16399;51.686;8.684;2023-04-15T02:53:42;10.03;;;5.17;;
29422;SDS011;16399;51.686;8.684;2023-04-15T02:56:45;9.08;;;5.37;;
29422;SDS011;16399;51.686;8.684;2023-04-15T02:59:47;10.15;;;5.35;;
29422;SDS011;16399;51.686;8.684;2023-04-15T03:02:49;9.60;;;4.70;;
29422;SDS011;16399;51.686;8.684;2023-04-15T03:05:54;7.87;;;4.37;;
29422;SDS011;16399;51.686;8.684;2023-04-15T03:08:56;8.70;;;5.37;;
29422;SDS011;16399;51.686;8.684;2023-04-15T03:12:00;11.55;;;5.17;;
29422;SDS011;16399;51.686;8.684;2023-04-15T03:15:02;9.55;;;5.97;;
29422;SDS011;16399;51.686;8.684;2023-04-15T03:18:06;9.13;;;5.78;;
29422;SDS011;16399;51.686;8.684;2023-04-15T03:21:08;9.73;;;5.87;;
29422;SDS011;16399;51.686;8.684;2023-04-15T03:24:10;10.53;;;5.78;;
29422;SDS011;16399;51.686;8.684;2023-04-15T03:27:13;8.78;;;5.35;;
29422;SDS011;16399;51.686;8.684;2023-04-15T03:30:15;10.48;;;5.65;;
29422;SDS011;16399;51.686;8.684;2023-04-15T03:33:17;11.05;;;5.65;;
29422;SDS011;16399;51.686;8.684;2023-04-15T03:36:20;10.95;;;5.97;;
29422;SDS011;16399;51.686;8.684;2023-04-15T03:39:22;13.03;;;6.47;;
29422;SDS011;16399;51.686;8.684;2023-04-15T03:42:24;9.38;;;5.75;;
29422;SDS011;16399;51.686;8.684;2023-04-15T03:45:27;10.72;;;5.42;;
29422;SDS011;16399;51.686;8.684;2023-04-15T03:48:29;11.22;;;5.83;;
29422;SDS011;16399;51.686;8.684;2023-04-15T03:51:31;9.75;;;5.42;;
29422;SDS011;16399;51.686;8.684;2023-04-15T03:54:34;9.85;;;5.97;;
29422;SDS011;16399;51.686;8.684;2023-04-15T03:57:36;10.70;;;6.40;;
29422;SDS011;16399;51.686;8.684;2023-04-15T04:00:39;12.07;;;5.80;;
29422;SDS011;16399;51.686;8.684;2023-04-15T04:03:41;10.65;;;6.72;;
29422;SDS011;16399;51.686;8.684;2023-04-15T04:06:44;11.25;;;5.55;;
29422;SDS011;16399;51.686;8.684;2023-04-15T04:09:46;11.30;;;6.10;;
29422;SDS011;16399;51.686;8.684;2023-04-15T04:12:48;11.30;;;6.30;;
29422;SDS011;16399;51.686;8.684;2023-04-15T04:15:51;16.50;;;6.30;;
29422;SDS011;16399;51.686;8.684;2023-04-15T04:18:53;11.33;;;5.67;;
29422;SDS011;16399;51.686;8.684;2023-04-15T04:21:55;12.28;;;6.15;;
29422;SDS011;16399;51.686;8.684;2023-04-15T04:24:58;11.90;;;5.95;;
29422;SDS011;16399;51.686;8.684;2023-04-15T04:28:02;11.73;;;6.10;;
29422;SDS011;16399;51.686;8.684;2023-04-15T04:31:05;11.70;;;6.85;;
29422;SDS011;16399;51.686;8.684;2023-04-15T04:34:07;11.93;;;5.60;;
29422;SDS011;16399;51.686;8.684;2023-04-15T04:37:10;11.97;;;6.22;;
29422;SDS011;16399;51.686;8.684;2023-04-15T04:40:12;9.88;;;5.95;;
29422;SDS011;16399;51.686;8.684;2023-04-15T04:43:14;11.03;;;6.05;;
29422;SDS011;16399;51.686;8.684;2023-04-15T04:46:17;11.73;;;6.00;;
29422;SDS011;16399;51.686;8.684;2023-04-15T04:49:19;10.93;;;6.35;;
29422;SDS011;16399;51.686;8.684;2023-04-15T04:52:21;11.40;;;7.08;;
29422;SDS011;16399;51.686;8.684;2023-04-15T04:55:24;12.95;;;6.47;;
29422;SDS011;16399;51.686;8.684;2023-04-15T04:58:26;14.00;;;7.12;;
29422;SDS011;16399;51.686;8.684;2023-04-15T05:01:28;10.63;;;6.62;;
29422;SDS011;16399;51.686;8.684;2023-04-15T05:04:31;13.72;;;6.33;;
29422;SDS011;16399;51.686;8.684;2023-04-15T05:07:34;14.63;;;6.95;;
29422;SDS011;16399;51.686;8.684;2023-04-15T05:10:36;11.88;;;6.50;;
29422;SDS011;16399;51.686;8.684;2023-04-15T05:13:38;10.48;;;6.35;;
29422;SDS011;16399;51.686;8.684;2023-04-15T05:16:40;12.78;;;6.58;;
29422;SDS011;16399;51.686;8.684;2023-04-15T05:19:43;15.10;;;7.20;;
29422;SDS011;16399;51.686;8.684;2023-04-15T05:22:45;12.28;;;6.70;;
29422;SDS011;16399;51.686;8.684;2023-04-15T05:25:47;13.80;;;6.90;;
29422;SDS011;16399;51.686;8.684;2023-04-15T05:28:50;14.55;;;7.05;;
29422;SDS011;16399;51.686;8.684;2023-04-15T05:31:52;12.33;;;6.87;;
29422;SDS011;16399;51.686;8.684;2023-04-15T05:34:54;11.50;;;7.47;;
29422;SDS011;16399;51.686;8.684;2023-04-15T05:37:56;11.93;;;6.97;;
29422;SDS011;16399;51.686;8.684;2023-04-15T05:40:59;12.90;;;6.62;;
29422;SDS011;16399;51.686;8.684;2023-04-15T05:44:01;12.20;;;6.60;;
29422;SDS011;16399;51.686;8.684;2023-04-15T05:47:03;12.30;;;7.10;;
29422;SDS011;16399;51.686;8.684;2023-04-15T05:50:07;13.43;;;7.45;;
29422;SDS011;16399;51.686;8.684;2023-04-15T05:53:10;14.47;;;7.62;;
29422;SDS011;16399;51.686;8.684;2023-04-15T05:56:12;16.70;;;8.23;;
29422;SDS011;16399;51.686;8.684;2023-04-15T05:59:14;13.05;;;8.10;;
29422;SDS011;16399;51.686;8.684;2023-04-15T06:02:16;16.10;;;8.45;;
29422;SDS011;16399;51.686;8.684;2023-04-15T06:05:19;13.28;;;8.23;;
29422;SDS011;16399;51.686;8.684;2023-04-15T06:08:21;14.83;;;8.10;;
29422;SDS011;16399;51.686;8.684;2023-04-15T06:11:23;13.50;;;7.95;;
29422;SDS011;16399;51.686;8.684;2023-04-15T06:14:26;14.60;;;8.05;;
29422;SDS011;16399;51.686;8.684;2023-04-15T06:17:29;13.78;;;8.40;;
29422;SDS011;16399;51.686;8.684;2023-04-15T06:20:31;14.03;;;8.38;;
29422;SDS011;16399;51.686;8.684;2023-04-15T06:23:34;14.73;;;8.03;;
29422;SDS011;16399;51.686;8.684;2023-04-15T06:26:36;12.47;;;7.97;;
29422;SDS011;16399;51.686;8.684;2023-04-15T06:29:38;15.48;;;8.60;;
29422;SDS011;16399;51.686;8.684;2023-04-15T06:32:41;15.13;;;9.30;;
29422;SDS011;16399;51.686;8.684;2023-04-15T06:35:43;14.15;;;7.97;;
29422;SDS011;16399;51.686;8.684;2023-04-15T06:38:45;13.95;;;7.90;;
29422;SDS011;16399;51.686;8.684;2023-04-15T06:41:48;13.05;;;8.38;;
29422;SDS011;16399;51.686;8.684;2023-04-15T06:44:50;13.83;;;9.00;;
29422;SDS011;16399;51.686;8.684;2023-04-15T06:47:52;13.25;;;8.15;;
29422;SDS011;16399;51.686;8.684;2023-04-15T06:50:55;14.93;;;8.98;;
29422;SDS011;16399;51.686;8.684;2023-04-15T06:53:58;13.22;;;8.88;;
29422;SDS011;16399;51.686;8.684;2023-04-15T06:57:00;19.35;;;9.73;;
29422;SDS011;16399;51.686;8.684;2023-04-15T07:00:03;17.52;;;9.03;;
29422;SDS011;16399;51.686;8.684;2023-04-15T07:03:05;18.95;;;9.43;;
29422;SDS011;16399;51.686;8.684;2023-04-15T07:06:09;16.10;;;9.83;;
29422;SDS011;16399;51.686;8.684;2023-04-15T07:09:12;15.28;;;9.58;;
29422;SDS011;16399;51.686;8.684;2023-04-15T07:12:15;17.02;;;10.20;;
29422;SDS011;16399;51.686;8.684;2023-04-15T07:15:17;17.40;;;10.10;;
29422;SDS011;16399;51.686;8.684;2023-04-15T07:18:19;17.37;;;10.72;;
29422;SDS011;16399;51.686;8.684;2023-04-15T07:21:22;15.83;;;10.05;;
29422;SDS011;16399;51.686;8.684;2023-04-15T07:24:27;20.17;;;11.70;;
29422;SDS011;16399;51.686;8.684;2023-04-15T07:27:29;16.67;;;10.98;;
29422;SDS011;16399;51.686;8.684;2023-04-15T07:30:32;20.62;;;11.00;;
29422;SDS011;16399;51.686;8.684;2023-04-15T07:33:34;16.97;;;10.93;;
29422;SDS011;16399;51.686;8.684;2023-04-15T07:36:36;18.87;;;10.85;;
29422;SDS011;16399;51.686;8.684;2023-04-15T07:39:39;17.87;;;10.93;;
29422;SDS011;16399;51.686;8.684;2023-04-15T07:42:42;20.60;;;11.68;;
29422;SDS011;16399;51.686;8.684;2023-04-15T07:45:44;18.98;;;10.98;;
29422;SDS011;16399;51.686;8.684;2023-04-15T07:48:47;21.55;;;11.65;;
29422;SDS011;16399;51.686;8.684;2023-04-15T07:51:49;18.55;;;11.57;;
29422;SDS011;16399;51.686;8.684;2023-04-15T07:54:51;18.45;;;11.57;;
29422;SDS011;16399;51.686;8.684;2023-04-15T07:57:54;18.90;;;10.95;;
29422;SDS011;16399;51.686;8.684;2023-04-15T08:00:56;17.70;;;11.28;;
29422;SDS011;16399;51.686;8.684;2023-04-15T08:03:59;17.80;;;11.43;;
29422;SDS011;16399;51.686;8.684;2023-04-15T08:07:02;18.92;;;11.97;;
29422;SDS011;16399;51.686;8.684;2023-04-15T08:10:04;18.23;;;11.10;;
29422;SDS011;16399;51.686;8.684;2023-04-15T08:13:07;19.73;;;11.73;;
29422;SDS011;16399;51.686;8.684;2023-04-15T08:16:14;19.12;;;11.93;;
29422;SDS011;16399;51.686;8.684;2023-04-15T08:19:24;19.05;;;11.43;;
29422;SDS011;16399;51.686;8.684;2023-04-15T08:22:26;21.48;;;12.43;;
29422;SDS011;16399;51.686;8.684;2023-04-15T08:25:28;19.55;;;12.25;;
29422;SDS011;16399;51.686;8.684;2023-04-15T08:28:31;20.15;;;12.35;;
29422;SDS011;16399;51.686;8.684;2023-04-15T08:31:33;24.70;;;14.05;;
29422;SDS011;16399;51.686;8.684;2023-04-15T08:34:35;23.22;;;13.88;;
29422;SDS011;16399;51.686;8.684;2023-04-15T08:37:38;23.15;;;14.68;;
29422;SDS011;16399;51.686;8.684;2023-04-15T08:40:41;24.27;;;14.23;;
29422;SDS011;16399;51.686;8.684;2023-04-15T08:43:50;28.17;;;15.50;;
29422;SDS011;16399;51.686;8.684;2023-04-15T08:46:56;24.98;;;14.60;;
29422;SDS011;16399;51.686;8.684;2023-04-15T08:50:03;24.20;;;14.58;;
29422;SDS011;16399;51.686;8.684;2023-04-15T08:53:07;26.68;;;14.78;;
29422;SDS011;16399;51.686;8.684;2023-04-15T08:56:11;24.95;;;13.90;;
29422;SDS011;16399;51.686;8.684;2023-04-15T08:59:17;23.02;;;13.30;;
29422;SDS011;16399;51.686;8.684;2023-04-15T09:02:21;24.27;;;14.27;;
29422;SDS011;16399;51.686;8.684;2023-04-15T09:05:30;27.05;;;15.43;;
29422;SDS011;16399;51.686;8.684;2023-04-15T09:08:33;26.97;;;15.63;;
29422;SDS011;16399;51.686;8.684;2023-04-15T09:11:35;27.98;;;15.93;;
29422;SDS011;16399;51.686;8.684;2023-04-15T09:14:38;26.02;;;15.20;;
29422;SDS011;16399;51.686;8.684;2023-04-15T09:17:41;20.50;;;11.33;;
29422;SDS011;16399;51.686;8.684;2023-04-15T09:20:45;20.37;;;11.63;;
29422;SDS011;16399;51.686;8.684;2023-04-15T09:23:59;16.10;;;9.05;;
29422;SDS011;16399;51.686;8.684;2023-04-15T09:26:58;13.90;;;8.05;;
29422;SDS011;16399;51.686;8.684;2023-04-15T09:30:01;11.70;;;6.67;;
29422;SDS011;16399;51.686;8.684;2023-04-15T09:33:07;11.78;;;7.00;;
29422;SDS011;16399;51.686;8.684;2023-04-15T09:36:10;11.35;;;6.67;;
29422;SDS011;16399;51.686;8.684;2023-04-15T09:39:12;13.90;;;7.62;;
29422;SDS011;16399;51.686;8.684;2023-04-15T09:42:15;12.65;;;7.33;;
29422;SDS011;16399;51.686;8.684;2023-04-15T09:45:19;11.28;;;6.65;;
29422;SDS011;16399;51.686;8.684;2023-04-15T09:48:22;13.35;;;7.70;;
29422;SDS011;16399;51.686;8.684;2023-04-15T09:51:35;13.65;;;7.37;;
29422;SDS011;16399;51.686;8.684;2023-04-15T09:54:38;11.70;;;6.95;;
29422;SDS011;16399;51.686;8.684;2023-04-15T09:57:41;11.20;;;6.87;;
29422;SDS011;16399;51.686;8.684;2023-04-15T10:00:45;11.30;;;6.73;;
29422;SDS011;16399;51.686;8.684;2023-04-15T10:03:49;11.35;;;6.65;;
29422;SDS011;16399;51.686;8.684;2023-04-15T10:06:53;13.90;;;7.20;;
29422;SDS011;16399;51.686;8.684;2023-04-15T10:09:56;12.20;;;7.65;;
29422;SDS011;16399;51.686;8.684;2023-04-15T10:13:01;14.13;;;7.72;;
29422;SDS011;16399;51.686;8.684;2023-04-15T10:16:09;12.00;;;7.17;;
29422;SDS011;16399;51.686;8.684;2023-04-15T10:19:09;10.68;;;6.72;;
29422;SDS011;16399;51.686;8.684;2023-04-15T10:22:12;10.72;;;6.47;;
29422;SDS011;16399;51.686;8.684;2023-04-15T10:25:15;13.03;;;7.50;;
29422;SDS011;16399;51.686;8.684;2023-04-15T10:28:18;12.25;;;6.85;;
29422;SDS011;16399;51.686;8.684;2023-04-15T10:31:23;12.63;;;7.40;;
29422;SDS011;16399;51.686;8.684;2023-04-15T10:34:25;13.15;;;7.20;;
29422;SDS011;16399;51.686;8.684;2023-04-15T10:37:35;15.60;;;7.53;;
29422;SDS011;16399;51.686;8.684;2023-04-15T10:40:38;12.98;;;6.97;;
29422;SDS011;16399;51.686;8.684;2023-04-15T10:43:53;13.80;;;7.72;;
29422;SDS011;16399;51.686;8.684;2023-04-15T10:46:57;12.10;;;6.95;;
29422;SDS011;16399;51.686;8.684;2023-04-15T10:50:00;14.38;;;7.70;;
29422;SDS011;16399;51.686;8.684;2023-04-15T10:53:03;14.47;;;7.75;;
29422;SDS011;16399;51.686;8.684;2023-04-15T10:56:05;16.20;;;8.98;;
29422;SDS011;16399;51.686;8.684;2023-04-15T10:59:08;13.85;;;8.00;;
29422;SDS011;16399;51.686;8.684;2023-04-15T11:02:11;12.90;;;7.62;;
29422;SDS011;16399;51.686;8.684;2023-04-15T11:05:15;12.70;;;7.33;;
29422;SDS011;16399;51.686;8.684;2023-04-15T11:08:18;11.60;;;6.72;;
29422;SDS011;16399;51.686;8.684;2023-04-15T11:11:21;12.33;;;7.30;;
29422;SDS011;16399;51.686;8.684;2023-04-15T11:14:23;11.63;;;7.28;;
29422;SDS011;16399;51.686;8.684;2023-04-15T11:17:26;11.78;;;6.28;;
29422;SDS011;16399;51.686;8.684;2023-04-15T11:20:29;11.33;;;7.00;;
29422;SDS011;16399;51.686;8.684;2023-04-15T11:23:37;10.45;;;5.83;;
29422;SDS011;16399;51.686;8.684;2023-04-15T11:26:42;9.55;;;5.85;;
29422;SDS011;16399;51.686;8.684;2023-04-15T11:29:44;10.15;;;4.85;;
29422;SDS011;16399;51.686;8.684;2023-04-15T11:32:47;9.93;;;5.75;;
29422;SDS011;16399;51.686;8.684;2023-04-15T11:35:53;10.70;;;4.87;;
29422;SDS011;16399;51.686;8.684;2023-04-15T11:38:56;9.50;;;4.60;;
29422;SDS011;16399;51.686;8.684;2023-04-15T11:41:59;11.63;;;5.60;;
29422;SDS011;16399;51.686;8.684;2023-04-15T11:48:12;8.78;;;4.65;;
29422;SDS011;16399;51.686;8.684;2023-04-15T11:51:15;7.62;;;4.60;;
29422;SDS011;16399;51.686;8.684;2023-04-15T11:54:18;6.80;;;4.50;;
29422;SDS011;16399;51.686;8.684;2023-04-15T11:57:20;10.13;;;5.33;;
29422;SDS011;16399;51.686;8.684;2023-04-15T12:00:22;8.58;;;5.03;;
29422;SDS011;16399;51.686;8.684;2023-04-15T12:03:25;8.08;;;4.72;;
29422;SDS011;16399;51.686;8.684;2023-04-15T12:06:32;7.92;;;4.97;;
29422;SDS011;16399;51.686;8.684;2023-04-15T12:09:37;7.83;;;5.05;;
29422;SDS011;16399;51.686;8.684;2023-04-15T12:12:40;8.93;;;4.45;;
29422;SDS011;16399;51.686;8.684;2023-04-15T12:15:42;9.13;;;4.60;;
29422;SDS011;16399;51.686;8.684;2023-04-15T12:18:51;8.35;;;4.75;;
29422;SDS011;16399;51.686;8.684;2023-04-15T12:21:59;8.50;;;4.53;;
29422;SDS011;16399;51.686;8.684;2023-04-15T12:25:03;7.12;;;4.28;;
29422;SDS011;16399;51.686;8.684;2023-04-15T12:28:12;8.13;;;5.10;;
29422;SDS011;16399;51.686;8.684;2023-04-15T12:31:14;9.88;;;5.80;;
29422;SDS011;16399;51.686;8.684;2023-04-15T12:34:18;8.70;;;4.87;;
29422;SDS011;16399;51.686;8.684;2023-04-15T12:37:31;7.40;;;4.50;;
29422;SDS011;16399;51.686;8.684;2023-04-15T12:40:33;8.83;;;4.92;;
29422;SDS011;16399;51.686;8.684;2023-04-15T12:43:36;7.78;;;4.85;;
29422;SDS011;16399;51.686;8.684;2023-04-15T12:46:38;7.45;;;4.17;;
29422;SDS011;16399;51.686;8.684;2023-04-15T12:49:41;7.35;;;4.15;;
29422;SDS011;16399;51.686;8.684;2023-04-15T12:52:43;7.25;;;4.05;;
29422;SDS011;16399;51.686;8.684;2023-04-15T12:55:45;7.72;;;4.62;;
29422;SDS011;16399;51.686;8.684;2023-04-15T12:58:48;7.53;;;4.20;;
29422;SDS011;16399;51.686;8.684;2023-04-15T13:01:51;7.45;;;4.25;;
29422;SDS011;16399;51.686;8.684;2023-04-15T13:04:53;7.92;;;4.47;;
29422;SDS011;16399;51.686;8.684;2023-04-15T13:07:55;7.30;;;4.25;;
29422;SDS011;16399;51.686;8.684;2023-04-15T13:10:58;7.90;;;4.87;;
29422;SDS011;16399;51.686;8.684;2023-04-15T13:14:01;8.30;;;4.35;;
29422;SDS011;16399;51.686;8.684;2023-04-15T13:17:04;7.03;;;4.37;;
29422;SDS011;16399;51.686;8.684;2023-04-15T13:20:08;6.97;;;3.93;;
29422;SDS011;16399;51.686;8.684;2023-04-15T13:23:11;6.10;;;3.90;;
29422;SDS011;16399;51.686;8.684;2023-04-15T13:26:13;7.70;;;3.92;;
29422;SDS011;16399;51.686;8.684;2023-04-15T13:29:16;5.97;;;3.75;;
29422;SDS011;16399;51.686;8.684;2023-04-15T13:32:18;6.47;;;3.58;;
29422;SDS011;16399;51.686;8.684;2023-04-15T13:35:20;6.37;;;3.62;;
29422;SDS011;16399;51.686;8.684;2023-04-15T13:38:23;5.55;;;3.50;;
29422;SDS011;16399;51.686;8.684;2023-04-15T13:41:26;5.12;;;3.37;;
29422;SDS011;16399;51.686;8.684;2023-04-15T13:44:28;6.85;;;3.58;;
29422;SDS011;16399;51.686;8.684;2023-04-15T13:47:30;6.28;;;3.25;;
29422;SDS011;16399;51.686;8.684;2023-04-15T13:50:33;5.95;;;3.62;;
29422;SDS011;16399;51.686;8.684;2023-04-15T13:53:35;5.17;;;3.33;;
29422;SDS011;16399;51.686;8.684;2023-04-15T13:56:37;6.05;;;3.77;;
29422;SDS011;16399;51.686;8.684;2023-04-15T13:59:40;4.85;;;2.90;;
29422;SDS011;16399;51.686;8.684;2023-04-15T14:02:43;5.85;;;3.15;;
29422;SDS011;16399;51.686;8.684;2023-04-15T14:05:45;7.62;;;3.27;;
29422;SDS011;16399;51.686;8.684;2023-04-15T14:08:49;6.27;;;3.00;;
29422;SDS011;16399;51.686;8.684;2023-04-15T14:11:52;4.87;;;3.08;;
29422;SDS011;16399;51.686;8.684;2023-04-15T14:14:54;4.75;;;2.90;;
29422;SDS011;16399;51.686;8.684;2023-04-15T14:17:56;4.92;;;3.08;;
29422;SDS011;16399;51.686;8.684;2023-04-15T14:20:59;5.30;;;3.33;;
29422;SDS011;16399;51.686;8.684;2023-04-15T14:24:01;5.00;;;2.70;;
29422;SDS011;16399;51.686;8.684;2023-04-15T14:27:03;6.12;;;3.10;;
29422;SDS011;16399;51.686;8.684;2023-04-15T14:30:08;6.35;;;3.45;;
29422;SDS011;16399;51.686;8.684;2023-04-15T14:33:11;5.08;;;3.12;;
29422;SDS011;16399;51.686;8.684;2023-04-15T14:36:13;5.47;;;3.15;;
29422;SDS011;16399;51.686;8.684;2023-04-15T14:39:15;5.78;;;2.98;;
29422;SDS011;16399;51.686;8.684;2023-04-15T14:42:18;5.47;;;3.10;;
29422;SDS011;16399;51.686;8.684;2023-04-15T14:45:20;6.70;;;3.50;;
29422;SDS011;16399;51.686;8.684;2023-04-15T14:48:23;7.45;;;3.15;;
29422;SDS011;16399;51.686;8.684;2023-04-15T14:51:25;7.58;;;3.98;;
29422;SDS011;16399;51.686;8.684;2023-04-15T14:54:28;5.92;;;3.37;;
29422;SDS011;16399;51.686;8.684;2023-04-15T14:57:30;5.97;;;3.55;;
29422;SDS011;16399;51.686;8.684;2023-04-15T15:00:32;7.00;;;3.75;;
29422;SDS011;16399;51.686;8.684;2023-04-15T15:03:35;6.70;;;3.75;;
29422;SDS011;16399;51.686;8.684;2023-04-15T15:06:38;7.17;;;4.42;;
29422;SDS011;16399;51.686;8.684;2023-04-15T15:09:42;5.85;;;3.67;;
29422;SDS011;16399;51.686;8.684;2023-04-15T15:12:45;7.65;;;3.98;;
29422;SDS011;16399;51.686;8.684;2023-04-15T15:15:47;7.15;;;4.47;;
29422;SDS011;16399;51.686;8.684;2023-04-15T15:18:49;8.03;;;4.45;;
29422;SDS011;16399;51.686;8.684;2023-04-15T15:21:52;8.73;;;4.67;;
29422;SDS011;16399;51.686;8.684;2023-04-15T15:24:54;7.83;;;4.78;;
29422;SDS011;16399;51.686;8.684;2023-04-15T15:27:58;7.83;;;4.87;;
29422;SDS011;16399;51.686;8.684;2023-04-15T15:31:01;8.30;;;5.17;;
29422;SDS011;16399;51.686;8.684;2023-04-15T15:34:03;10.23;;;5.25;;
29422;SDS011;16399;51.686;8.684;2023-04-15T15:37:06;9.13;;;4.92;;
29422;SDS011;16399;51.686;8.684;2023-04-15T15:40:08;10.23;;;5.15;;
29422;SDS011;16399;51.686;8.684;2023-04-15T15:43:11;9.03;;;5.05;;
29422;SDS011;16399;51.686;8.684;2023-04-15T15:46:13;9.25;;;5.53;;
29422;SDS011;16399;51.686;8.684;2023-04-15T15:49:16;8.73;;;5.22;;
29422;SDS011;16399;51.686;8.684;2023-04-15T15:52:19;8.33;;;5.65;;
29422;SDS011;16399;51.686;8.684;2023-04-15T15:55:22;9.33;;;5.33;;
29422;SDS011;16399;51.686;8.684;2023-04-15T15:58:26;7.70;;;5.40;;
29422;SDS011;16399;51.686;8.684;2023-04-15T16:01:28;9.30;;;5.22;;
29422;SDS011;16399;51.686;8.684;2023-04-15T16:04:30;9.53;;;5.67;;
29422;SDS011;16399;51.686;8.684;2023-04-15T16:07:33;9.58;;;5.47;;
29422;SDS011;16399;51.686;8.684;2023-04-15T16:10:36;8.68;;;5.12;;
29422;SDS011;16399;51.686;8.684;2023-04-15T16:13:38;8.95;;;5.55;;
29422;SDS011;16399;51.686;8.684;2023-04-15T16:16:41;8.45;;;5.33;;
29422;SDS011;16399;51.686;8.684;2023-04-15T16:19:43;8.63;;;5.80;;
29422;SDS011;16399;51.686;8.684;2023-04-15T16:22:45;9.50;;;5.70;;
29422;SDS011;16399;51.686;8.684;2023-04-15T16:25:48;8.38;;;5.55;;
29422;SDS011;16399;51.686;8.684;2023-04-15T16:28:51;9.95;;;5.92;;
29422;SDS011;16399;51.686;8.684;2023-04-15T16:31:54;9.65;;;5.55;;
29422;SDS011;16399;51.686;8.684;2023-04-15T16:34:56;9.55;;;6.00;;
29422;SDS011;16399;51.686;8.684;2023-04-15T16:37:58;8.15;;;5.50;;
29422;SDS011;16399;51.686;8.684;2023-04-15T16:41:01;9.95;;;5.90;;
29422;SDS011;16399;51.686;8.684;2023-04-15T16:44:03;9.25;;;5.85;;
29422;SDS011;16399;51.686;8.684;2023-04-15T16:47:07;8.15;;;5.70;;
29422;SDS011;16399;51.686;8.684;2023-04-15T16:50:11;9.70;;;5.90;;
29422;SDS011;16399;51.686;8.684;2023-04-15T16:53:13;13.35;;;6.35;;
29422;SDS011;16399;51.686;8.684;2023-04-15T16:56:16;11.00;;;5.95;;
29422;SDS011;16399;51.686;8.684;2023-04-15T16:59:21;9.88;;;5.92;;
29422;SDS011;16399;51.686;8.684;2023-04-15T17:02:23;12.80;;;6.80;;
29422;SDS011;16399;51.686;8.684;2023-04-15T17:05:25;10.30;;;6.30;;
29422;SDS011;16399;51.686;8.684;2023-04-15T17:08:28;12.03;;;6.37;;
29422;SDS011;16399;51.686;8.684;2023-04-15T17:11:30;9.85;;;5.22;;
29422;SDS011;16399;51.686;8.684;2023-04-15T17:14:34;8.10;;;5.42;;
29422;SDS011;16399;51.686;8.684;2023-04-15T17:17:38;10.48;;;5.70;;
29422;SDS011;16399;51.686;8.684;2023-04-15T17:20:40;11.68;;;6.15;;
29422;SDS011;16399;51.686;8.684;2023-04-15T17:23:42;9.10;;;5.83;;
29422;SDS011;16399;51.686;8.684;2023-04-15T17:26:45;10.72;;;6.42;;
29422;SDS011;16399;51.686;8.684;2023-04-15T17:29:47;9.35;;;5.90;;
29422;SDS011;16399;51.686;8.684;2023-04-15T17:32:50;10.23;;;6.40;;
29422;SDS011;16399;51.686;8.684;2023-04-15T17:35:52;10.95;;;6.42;;
29422;SDS011;16399;51.686;8.684;2023-04-15T17:38:55;10.65;;;5.85;;
29422;SDS011;16399;51.686;8.684;2023-04-15T17:41:57;10.88;;;6.47;;
29422;SDS011;16399;51.686;8.684;2023-04-15T17:45:00;12.88;;;6.58;;
29422;SDS011;16399;51.686;8.684;2023-04-15T17:48:02;12.65;;;6.60;;
29422;SDS011;16399;51.686;8.684;2023-04-15T17:51:04;13.32;;;6.85;;
29422;SDS011;16399;51.686;8.684;2023-04-15T17:54:07;11.55;;;7.08;;
29422;SDS011;16399;51.686;8.684;2023-04-15T17:57:09;11.95;;;7.33;;
29422;SDS011;16399;51.686;8.684;2023-04-15T18:00:11;11.93;;;7.03;;
29422;SDS011;16399;51.686;8.684;2023-04-15T18:03:14;14.45;;;6.97;;
29422;SDS011;16399;51.686;8.684;2023-04-15T18:06:16;13.20;;;7.60;;
29422;SDS011;16399;51.686;8.684;2023-04-15T18:09:20;15.63;;;7.93;;
29422;SDS011;16399;51.686;8.684;2023-04-15T18:12:23;20.00;;;9.23;;